createdAt,value
2023-03-26T00:01:33.669Z,6.41
2023-03-26T00:04:01.649Z,6.46
2023-03-26T00:06:32.727Z,6.33
2023-03-26T00:08:59.737Z,6.29
2023-03-26T00:11:29.454Z,6.26
2023-03-26T00:13:57.826Z,6.25
2023-03-26T00:16:28.943Z,6.22
2023-03-26T00:18:57.706Z,6.24
2023-03-26T00:21:27.759Z,6.25
2023-03-26T00:24:00.946Z,6.30
2023-03-26T00:26:31.175Z,6.35
2023-03-26T00:29:00.255Z,6.34
2023-03-26T00:31:27.824Z,6.28
2023-03-26T00:33:55.879Z,6.29
2023-03-26T00:36:25.838Z,6.39
2023-03-26T00:38:54.070Z,6.30
2023-03-26T00:41:26.140Z,6.30
2023-03-26T00:43:56.864Z,6.37
2023-03-26T00:46:25.974Z,6.39
2023-03-26T00:48:53.383Z,6.39
2023-03-26T00:51:21.367Z,6.38
2023-03-26T00:53:50.525Z,6.38
2023-03-26T00:56:18.648Z,6.31
2023-03-26T00:58:47.508Z,6.30
2023-03-26T01:01:18.842Z,6.39
2023-03-26T01:04:04.721Z,6.37
2023-03-26T01:06:37.746Z,6.31
2023-03-26T01:09:14.610Z,6.28
2023-03-26T01:11:42.283Z,6.26
2023-03-26T01:14:13.379Z,6.33
2023-03-26T01:16:52.275Z,6.30
2023-03-26T01:19:38.008Z,6.28
2023-03-26T01:22:09.633Z,6.30
2023-03-26T01:24:38.258Z,6.28
2023-03-26T01:27:10.267Z,6.29
2023-03-26T01:29:44.131Z,6.33
2023-03-26T01:32:24.760Z,6.28
2023-03-26T01:35:17.380Z,6.29
2023-03-26T01:38:18.536Z,6.22
2023-03-26T01:41:04.814Z,6.22
2023-03-26T01:44:02.708Z,6.18
2023-03-26T01:46:36.222Z,6.10
2023-03-26T01:49:06.018Z,6.07
2023-03-26T01:51:36.060Z,6.03
2023-03-26T01:54:07.487Z,6.00
2023-03-26T01:57:01.059Z,6.02
2023-03-26T01:59:56.253Z,5.92
2023-03-26T02:02:59.217Z,5.81
2023-03-26T02:05:51.259Z,5.77
2023-03-26T02:08:24.285Z,5.80
2023-03-26T02:10:58.219Z,5.79
2023-03-26T02:13:26.357Z,5.75
2023-03-26T02:15:58.896Z,5.69
2023-03-26T02:18:38.989Z,5.72
2023-03-26T02:21:12.371Z,5.79
2023-03-26T02:23:46.731Z,5.73
2023-03-26T02:26:17.485Z,5.61
2023-03-26T02:28:46.846Z,5.56
2023-03-26T02:31:17.120Z,5.53
2023-03-26T02:33:47.476Z,5.50
2023-03-26T02:36:16.080Z,5.53
2023-03-26T02:38:43.481Z,5.52
2023-03-26T02:41:11.560Z,5.45
2023-03-26T02:43:39.933Z,5.44
2023-03-26T02:46:08.631Z,5.35
2023-03-26T02:48:37.868Z,5.27
2023-03-26T02:51:06.708Z,5.28
2023-03-26T02:53:34.541Z,5.26
2023-03-26T02:56:06.171Z,5.13
2023-03-26T02:58:35.738Z,5.16
2023-03-26T03:01:03.439Z,5.06
2023-03-26T03:03:31.516Z,5.04
2023-03-26T03:06:00.511Z,4.99
2023-03-26T03:08:29.286Z,5.00
2023-03-26T03:10:59.553Z,5.03
2023-03-26T03:13:30.276Z,5.05
2023-03-26T03:15:57.767Z,5.03
2023-03-26T03:18:25.660Z,5.16
2023-03-26T03:20:54.006Z,5.20
2023-03-26T03:23:21.391Z,5.27
2023-03-26T03:25:52.602Z,5.34
2023-03-26T03:28:20.557Z,5.32
2023-03-26T03:30:48.907Z,5.29
2023-03-26T03:33:16.471Z,5.24
2023-03-26T03:35:45.970Z,5.14
2023-03-26T03:38:13.361Z,5.09
2023-03-26T03:40:41.464Z,5.07
2023-03-26T03:43:09.443Z,5.00
2023-03-26T03:45:37.591Z,5.01
2023-03-26T03:48:06.690Z,4.94
2023-03-26T03:50:35.924Z,4.92
2023-03-26T03:53:05.731Z,5.02
2023-03-26T03:55:34.067Z,5.00
2023-03-26T03:58:01.741Z,5.02
2023-03-26T04:00:30.673Z,5.03
2023-03-26T04:02:58.834Z,5.01
2023-03-26T04:05:26.792Z,4.99
2023-03-26T04:07:53.921Z,5.05
2023-03-26T04:10:23.753Z,5.03
2023-03-26T04:12:53.153Z,4.98
2023-03-26T04:15:21.101Z,5.02
2023-03-26T04:17:48.694Z,5.03
2023-03-26T04:20:16.506Z,5.12
2023-03-26T04:22:44.215Z,5.14
2023-03-26T04:25:13.628Z,5.22
2023-03-26T04:27:44.013Z,5.17
2023-03-26T04:30:17.168Z,5.13
2023-03-26T04:32:46.006Z,5.13
2023-03-26T04:35:16.670Z,5.11
2023-03-26T04:37:46.071Z,5.07
2023-03-26T04:40:20.503Z,5.03
2023-03-26T04:42:48.146Z,5.02
2023-03-26T04:45:22.606Z,5.02
2023-03-26T04:47:52.731Z,5.00
2023-03-26T04:50:20.131Z,5.01
2023-03-26T04:52:47.350Z,5.07
2023-03-26T04:55:24.843Z,5.13
2023-03-26T04:58:00.182Z,5.27
2023-03-26T05:00:28.435Z,5.51
2023-03-26T05:02:59.464Z,5.68
2023-03-26T05:05:29.103Z,5.85
2023-03-26T05:07:57.759Z,5.98
2023-03-26T05:10:25.315Z,6.23
2023-03-26T05:12:52.948Z,6.49
2023-03-26T05:15:20.770Z,6.64
2023-03-26T05:17:49.873Z,6.78
2023-03-26T05:20:24.035Z,7.04
2023-03-26T05:22:52.050Z,7.26
2023-03-26T05:25:19.814Z,7.35
2023-03-26T05:27:47.297Z,7.44
2023-03-26T05:30:18.031Z,7.46
2023-03-26T05:32:48.822Z,7.55
2023-03-26T05:35:17.714Z,7.77
2023-03-26T05:37:46.483Z,7.89
2023-03-26T05:40:16.945Z,7.92
2023-03-26T05:42:45.611Z,7.93
2023-03-26T05:45:16.155Z,7.97
2023-03-26T05:47:43.561Z,7.95
2023-03-26T05:50:11.498Z,7.94
2023-03-26T05:52:39.702Z,8.11
2023-03-26T05:55:08.358Z,8.55
2023-03-26T05:57:42.586Z,9.08
2023-03-26T06:00:16.656Z,9.49
2023-03-26T06:02:44.213Z,9.83
2023-03-26T06:05:12.688Z,10.63
2023-03-26T06:07:43.998Z,11.88
2023-03-26T06:10:17.832Z,13.28
2023-03-26T06:12:46.141Z,14.46
2023-03-26T06:15:13.701Z,15.38
2023-03-26T06:17:41.123Z,15.89
2023-03-26T06:20:11.298Z,15.94
2023-03-26T06:22:38.965Z,15.35
2023-03-26T06:25:08.004Z,14.73
2023-03-26T06:27:36.245Z,14.18
2023-03-26T06:30:04.591Z,13.84
2023-03-26T06:32:32.421Z,13.57
2023-03-26T06:34:59.958Z,13.94
2023-03-26T06:37:27.344Z,14.12
2023-03-26T06:39:55.512Z,13.96
2023-03-26T06:42:22.878Z,14.11
2023-03-26T06:45:10.673Z,13.89
2023-03-26T06:47:44.341Z,14.02
2023-03-26T06:50:14.110Z,14.30
2023-03-26T06:52:41.343Z,14.34
2023-03-26T06:55:10.433Z,13.94
2023-03-26T06:57:39.344Z,13.61
2023-03-26T07:00:09.717Z,13.49
2023-03-26T07:02:41.789Z,13.38
2023-03-26T07:05:23.691Z,12.82
2023-03-26T07:07:58.321Z,12.10
2023-03-26T07:10:42.490Z,11.71
2023-03-26T07:13:10.042Z,11.80
2023-03-26T07:15:38.424Z,12.98
2023-03-26T07:18:06.115Z,13.50
2023-03-26T07:20:34.869Z,13.61
2023-03-26T07:23:02.379Z,13.99
2023-03-26T07:25:30.417Z,14.87
2023-03-26T07:28:07.999Z,15.44
2023-03-26T07:30:59.617Z,16.41
2023-03-26T07:33:53.881Z,16.49
2023-03-26T07:36:26.117Z,16.30
2023-03-26T07:39:08.816Z,15.60
2023-03-26T07:41:41.656Z,15.18
2023-03-26T07:44:12.526Z,14.70
2023-03-26T07:46:41.447Z,14.45
2023-03-26T07:49:12.719Z,14.24
2023-03-26T07:51:40.589Z,13.63
2023-03-26T07:54:10.697Z,13.32
2023-03-26T07:56:40.076Z,13.27
2023-03-26T07:59:13.694Z,13.61
2023-03-26T08:02:00.033Z,13.37
2023-03-26T08:04:33.273Z,13.46
2023-03-26T08:07:15.644Z,13.20
2023-03-26T08:10:19.001Z,13.26
2023-03-26T08:13:39.148Z,13.07
2023-03-26T08:16:23.192Z,13.01
2023-03-26T08:19:07.884Z,12.98
2023-03-26T08:21:38.090Z,12.70
2023-03-26T08:24:23.791Z,12.89
2023-03-26T08:26:55.203Z,12.92
2023-03-26T08:29:41.257Z,13.06
2023-03-26T08:32:17.758Z,13.19
2023-03-26T08:34:46.214Z,13.29
2023-03-26T08:37:13.930Z,13.21
2023-03-26T08:39:42.510Z,13.28
2023-03-26T08:42:30.171Z,13.52
2023-03-26T08:45:22.595Z,13.71
2023-03-26T08:48:14.496Z,13.91
2023-03-26T08:51:01.537Z,14.07
2023-03-26T08:54:00.526Z,14.04
2023-03-26T08:56:59.543Z,14.21
2023-03-26T08:59:44.957Z,14.62
2023-03-26T09:02:41.175Z,14.24
2023-03-26T09:05:40.684Z,14.34
2023-03-26T09:08:26.478Z,14.47
2023-03-26T09:11:19.100Z,14.91
2023-03-26T09:13:49.210Z,14.92
2023-03-26T09:16:53.695Z,14.97
2023-03-26T09:19:35.580Z,15.06
2023-03-26T09:22:28.550Z,14.83
2023-03-26T09:25:06.953Z,15.02
2023-03-26T09:27:39.352Z,15.29
2023-03-26T09:30:19.125Z,15.18
2023-03-26T09:33:14.746Z,15.24
2023-03-26T09:35:53.498Z,15.41
2023-03-26T09:38:29.713Z,15.12
2023-03-26T09:41:27.265Z,14.90
2023-03-26T09:44:28.051Z,15.53
2023-03-26T09:46:55.649Z,15.46
2023-03-26T09:49:42.930Z,15.04
2023-03-26T09:52:50.371Z,14.92
2023-03-26T09:55:23.318Z,15.08
2023-03-26T09:58:08.111Z,15.28
2023-03-26T10:01:05.879Z,15.27
2023-03-26T10:03:51.945Z,14.91
2023-03-26T10:06:58.003Z,14.47
2023-03-26T10:09:25.679Z,14.27
2023-03-26T10:12:01.946Z,13.77
2023-03-26T10:14:41.233Z,13.34
2023-03-26T10:17:25.673Z,12.98
2023-03-26T10:20:04.898Z,12.82
2023-03-26T10:22:32.054Z,12.59
2023-03-26T10:25:29.916Z,12.68
2023-03-26T10:28:05.891Z,13.22
2023-03-26T10:30:33.356Z,13.77
2023-03-26T10:33:25.004Z,14.18
2023-03-26T10:35:55.381Z,14.48
2023-03-26T10:38:53.288Z,14.56
2023-03-26T10:41:42.664Z,14.69
2023-03-26T10:44:12.861Z,14.90
2023-03-26T10:47:01.898Z,15.04
2023-03-26T10:50:06.584Z,14.90
2023-03-26T10:52:51.772Z,14.64
2023-03-26T10:55:26.338Z,14.45
2023-03-26T10:58:01.069Z,14.21
2023-03-26T11:00:30.050Z,13.94
2023-03-26T11:03:20.908Z,13.77
2023-03-26T11:05:57.777Z,13.73
2023-03-26T11:08:36.206Z,13.79
2023-03-26T11:11:24.184Z,14.19
2023-03-26T11:14:07.020Z,14.36
2023-03-26T11:16:49.546Z,14.17
2023-03-26T11:19:20.222Z,14.08
2023-03-26T11:22:11.428Z,14.01
2023-03-26T11:25:17.157Z,14.33
2023-03-26T11:28:09.422Z,14.42
2023-03-26T11:31:05.244Z,14.91
2023-03-26T11:33:37.246Z,15.19
2023-03-26T11:36:12.048Z,15.75
2023-03-26T11:38:43.681Z,15.98
2023-03-26T11:41:24.030Z,15.52
2023-03-26T11:43:58.972Z,15.19
2023-03-26T11:46:31.908Z,14.97
2023-03-26T11:49:06.729Z,14.98
2023-03-26T11:51:36.756Z,15.16
2023-03-26T11:54:07.886Z,15.70
2023-03-26T11:56:35.923Z,16.45
2023-03-26T11:59:20.559Z,16.76
2023-03-26T12:02:24.756Z,16.89
2023-03-26T12:05:02.800Z,17.58
2023-03-26T12:07:32.667Z,17.89
2023-03-26T12:10:18.578Z,17.83
2023-03-26T12:12:47.976Z,17.79
2023-03-26T12:15:20.858Z,18.22
2023-03-26T12:17:53.503Z,18.10
2023-03-26T12:20:27.112Z,17.94
2023-03-26T12:22:59.082Z,17.87
2023-03-26T12:25:33.763Z,17.36
2023-03-26T12:28:03.026Z,17.04
2023-03-26T12:30:34.494Z,17.01
2023-03-26T12:33:26.143Z,16.94
2023-03-26T12:35:57.891Z,16.63
2023-03-26T12:38:35.851Z,16.40
2023-03-26T12:43:53.486Z,16.55
2023-03-26T12:44:53.798Z,16.56
2023-03-26T12:47:57.980Z,16.52
2023-03-26T12:50:17.167Z,16.63
2023-03-26T12:52:54.005Z,16.75
2023-03-26T12:55:42.274Z,16.68
2023-03-26T12:58:19.850Z,16.83
2023-03-26T13:01:16.041Z,16.87
2023-03-26T13:04:03.399Z,17.23
2023-03-26T13:07:06.430Z,17.25
2023-03-26T13:09:55.971Z,17.43
2023-03-26T13:12:55.414Z,17.70
2023-03-26T13:15:28.872Z,17.51
2023-03-26T13:18:01.044Z,17.38
2023-03-26T13:20:43.275Z,17.07
2023-03-26T13:23:26.722Z,16.88
2023-03-26T13:26:00.145Z,16.94
2023-03-26T13:29:25.759Z,17.24
2023-03-26T13:32:14.692Z,17.05
2023-03-26T13:35:14.115Z,17.24
2023-03-26T13:37:50.944Z,17.34
2023-03-26T13:40:29.755Z,17.19
2023-03-26T13:43:34.445Z,17.29
2023-03-26T13:46:14.088Z,17.28
2023-03-26T13:48:59.792Z,17.61
2023-03-26T13:51:48.246Z,17.70
2023-03-26T13:54:29.797Z,17.80
2023-03-26T13:57:07.519Z,17.77
2023-03-26T13:59:53.898Z,17.85
2023-03-26T14:02:25.708Z,17.51
2023-03-26T14:05:02.085Z,17.34
2023-03-26T14:07:43.174Z,17.38
2023-03-26T14:10:16.771Z,17.37
2023-03-26T14:12:51.348Z,17.38
2023-03-26T14:15:21.632Z,17.24
2023-03-26T14:18:27.334Z,17.18
2023-03-26T14:21:17.121Z,17.16
2023-03-26T14:23:56.420Z,17.17
2023-03-26T14:26:29.924Z,17.07
2023-03-26T14:28:56.902Z,16.98
2023-03-26T14:31:44.594Z,17.02
2023-03-26T14:34:34.655Z,16.85
2023-03-26T14:37:18.516Z,16.82
2023-03-26T14:40:16.738Z,16.87
2023-03-26T14:42:58.901Z,16.76
2023-03-26T14:46:03.968Z,16.72
2023-03-26T14:48:37.293Z,16.84
2023-03-26T14:51:16.771Z,16.95
2023-03-26T14:53:49.615Z,16.96
2023-03-26T14:56:47.032Z,16.88
2023-03-26T14:59:56.229Z,16.97
2023-03-26T15:02:55.826Z,17.06
2023-03-26T15:05:48.046Z,17.05
2023-03-26T15:08:34.450Z,16.98
2023-03-26T15:11:26.894Z,16.83
2023-03-26T15:14:03.333Z,17.02
2023-03-26T15:16:49.271Z,16.99
2023-03-26T15:19:46.972Z,17.03
2023-03-26T15:22:13.942Z,16.92
2023-03-26T15:24:59.566Z,16.87
2023-03-26T15:27:29.652Z,16.70
2023-03-26T15:30:16.024Z,16.56
2023-03-26T15:32:49.436Z,16.42
2023-03-26T15:35:41.605Z,16.26
2023-03-26T15:38:42.838Z,16.21
2023-03-26T15:41:44.435Z,16.15
2023-03-26T15:44:33.022Z,16.16
2023-03-26T15:47:27.383Z,15.97
2023-03-26T15:50:11.730Z,15.79
2023-03-26T15:53:03.568Z,15.73
2023-03-26T15:55:43.781Z,15.77
2023-03-26T15:58:27.278Z,15.80
2023-03-26T16:01:06.234Z,15.66
2023-03-26T16:03:48.093Z,15.48
2023-03-26T16:06:21.865Z,15.34
2023-03-26T16:09:07.902Z,15.31
2023-03-26T16:11:50.394Z,15.02
2023-03-26T16:14:36.119Z,14.84
2023-03-26T16:17:06.489Z,14.71
2023-03-26T16:19:50.271Z,14.58
2023-03-26T16:22:35.720Z,14.45
2023-03-26T16:25:29.594Z,14.31
2023-03-26T16:28:34.044Z,14.07
2023-03-26T16:31:36.508Z,13.91
2023-03-26T16:34:09.003Z,13.80
2023-03-26T16:36:39.071Z,13.72
2023-03-26T16:39:06.212Z,13.62
2023-03-26T16:41:51.296Z,13.47
2023-03-26T16:44:43.537Z,13.38
2023-03-26T16:47:42.318Z,13.19
2023-03-26T16:50:16.191Z,13.11
2023-03-26T16:52:54.964Z,13.06
2023-03-26T16:55:37.536Z,12.87
2023-03-26T16:59:00.375Z,12.79
2023-03-26T17:01:52.374Z,12.65
2023-03-26T17:04:24.865Z,12.52
2023-03-26T17:07:01.562Z,12.43
2023-03-26T17:09:42.660Z,12.41
2023-03-26T17:12:47.327Z,12.34
2023-03-26T17:15:45.096Z,12.35
2023-03-26T17:18:27.570Z,12.25
2023-03-26T17:21:01.088Z,12.18
2023-03-26T17:23:49.470Z,12.17
2023-03-26T17:27:01.676Z,12.12
2023-03-26T17:29:45.143Z,12.10
2023-03-26T17:32:15.140Z,12.05
2023-03-26T17:34:55.446Z,12.02
2023-03-26T17:37:22.816Z,11.97
2023-03-26T17:39:50.033Z,11.99
2023-03-26T17:42:19.002Z,11.95
2023-03-26T17:44:49.907Z,11.95
2023-03-26T17:47:59.215Z,11.90
2023-03-26T17:50:32.434Z,11.86
2023-03-26T17:53:06.131Z,11.87
2023-03-26T17:55:38.278Z,11.86
2023-03-26T17:58:58.702Z,11.89
2023-03-26T18:01:41.480Z,11.89
2023-03-26T18:04:19.793Z,11.89
2023-03-26T18:07:01.983Z,11.88
2023-03-26T18:09:53.158Z,11.84
2023-03-26T18:12:46.688Z,11.83
2023-03-26T18:15:32.855Z,11.74
2023-03-26T18:18:07.684Z,11.79
2023-03-26T18:20:38.574Z,11.71
2023-03-26T18:23:22.165Z,11.62
2023-03-26T18:26:15.480Z,11.59
2023-03-26T18:28:54.733Z,11.54
2023-03-26T18:31:26.812Z,11.56
2023-03-26T18:34:06.688Z,11.56
2023-03-26T18:36:34.889Z,11.58
2023-03-26T18:39:04.277Z,11.60
2023-03-26T18:41:37.258Z,11.60
2023-03-26T18:44:07.988Z,11.60
2023-03-26T18:46:35.678Z,11.63
2023-03-26T18:49:03.912Z,11.63
2023-03-26T18:51:32.180Z,11.70
2023-03-26T18:54:03.874Z,11.72
2023-03-26T18:56:43.342Z,11.67
2023-03-26T18:59:33.875Z,11.69
2023-03-26T19:02:13.960Z,11.71
2023-03-26T19:04:46.679Z,11.70
2023-03-26T19:07:18.102Z,11.71
2023-03-26T19:09:45.426Z,11.71
2023-03-26T19:12:31.089Z,11.74
2023-03-26T19:15:09.944Z,11.74
2023-03-26T19:17:42.376Z,11.75
2023-03-26T19:20:19.444Z,11.78
2023-03-26T19:22:48.248Z,11.80
2023-03-26T19:25:55.458Z,11.80
2023-03-26T19:28:24.052Z,11.83
2023-03-26T19:30:57.964Z,11.83
2023-03-26T19:33:34.321Z,11.83
2023-03-26T19:36:24.155Z,11.81
2023-03-26T19:39:05.038Z,11.82
2023-03-26T19:41:36.494Z,11.91
2023-03-26T19:44:18.220Z,11.88
2023-03-26T19:46:53.666Z,11.86
2023-03-26T19:49:42.468Z,11.91
2023-03-26T19:52:15.125Z,11.86
2023-03-26T19:55:15.376Z,11.91
2023-03-26T19:57:43.168Z,11.98
2023-03-26T20:00:15.234Z,11.93
2023-03-26T20:02:46.226Z,11.92
2023-03-26T20:05:28.927Z,11.86
2023-03-26T20:07:59.659Z,11.81
2023-03-26T20:10:28.029Z,11.79
2023-03-26T20:12:55.092Z,11.77
2023-03-26T20:15:24.715Z,11.72
2023-03-26T20:17:55.521Z,11.71
2023-03-26T20:20:24.766Z,11.86
2023-03-26T20:22:53.919Z,11.81
2023-03-26T20:25:26.781Z,11.69
2023-03-26T20:27:56.642Z,11.66
2023-03-26T20:30:37.042Z,11.63
2023-03-26T20:33:12.365Z,11.70
2023-03-26T20:35:40.886Z,11.59
2023-03-26T20:38:09.713Z,11.53
2023-03-26T20:40:38.556Z,11.48
2023-03-26T20:43:11.741Z,11.42
2023-03-26T20:45:39.538Z,11.36
2023-03-26T20:48:08.510Z,11.31
2023-03-26T20:50:41.565Z,11.28
2023-03-26T20:53:20.356Z,11.34
2023-03-26T20:55:49.252Z,11.30
2023-03-26T20:58:32.056Z,11.34
2023-03-26T21:01:01.500Z,11.29
2023-03-26T21:03:29.027Z,11.24
2023-03-26T21:06:01.366Z,11.28
2023-03-26T21:08:34.859Z,11.43
2023-03-26T21:11:04.788Z,11.35
2023-03-26T21:13:45.057Z,11.35
2023-03-26T21:16:13.311Z,11.34
2023-03-26T21:18:41.880Z,11.20
2023-03-26T21:22:01.664Z,11.32
2023-03-26T21:25:18.606Z,11.15
2023-03-26T21:28:06.140Z,10.97
2023-03-26T21:30:34.841Z,10.62
2023-03-26T21:33:02.342Z,10.45
2023-03-26T21:35:29.883Z,10.30
2023-03-26T21:37:57.768Z,10.19
2023-03-26T21:40:24.935Z,10.12
2023-03-26T21:42:54.275Z,10.00
2023-03-26T21:45:22.517Z,9.95
2023-03-26T21:47:50.311Z,9.92
2023-03-26T21:50:21.725Z,9.97
2023-03-26T21:52:51.362Z,9.89
2023-03-26T21:55:21.380Z,9.78
2023-03-26T21:58:12.552Z,9.74
2023-03-26T22:00:52.015Z,9.82
2023-03-26T22:03:29.414Z,9.89
2023-03-26T22:06:38.091Z,9.95
2023-03-26T22:09:05.762Z,9.83
2023-03-26T22:11:32.920Z,9.60
2023-03-26T22:14:01.565Z,9.50
2023-03-26T22:16:29.119Z,9.26
2023-03-26T22:18:56.505Z,9.26
2023-03-26T22:21:23.684Z,9.08
2023-03-26T22:23:54.697Z,8.94
2023-03-26T22:26:23.469Z,8.91
2023-03-26T22:28:51.103Z,8.96
2023-03-26T22:31:18.402Z,8.84
2023-03-26T22:33:46.070Z,8.88
2023-03-26T22:36:22.770Z,8.87
2023-03-26T22:38:54.249Z,8.82
2023-03-26T22:41:22.744Z,8.72
2023-03-26T22:43:52.148Z,8.74
2023-03-26T22:46:19.916Z,8.68
2023-03-26T22:48:51.144Z,8.67
2023-03-26T22:51:18.918Z,8.65
2023-03-26T22:53:46.086Z,8.64
2023-03-26T22:56:15.334Z,8.65
2023-03-26T22:58:42.401Z,8.62
2023-03-26T23:01:09.448Z,8.54
2023-03-26T23:03:37.271Z,8.52
2023-03-26T23:06:07.851Z,8.47
2023-03-26T23:08:36.294Z,8.38
2023-03-26T23:11:24.785Z,8.33
2023-03-26T23:13:52.070Z,8.40
2023-03-26T23:16:21.517Z,8.48
2023-03-26T23:18:48.939Z,8.46
2023-03-26T23:21:19.563Z,8.52
2023-03-26T23:23:48.192Z,8.41
2023-03-26T23:26:15.424Z,8.41
2023-03-26T23:28:43.275Z,8.26
2023-03-26T23:31:15.006Z,8.38
2023-03-26T23:33:51.412Z,8.24
2023-03-26T23:36:21.217Z,8.23
2023-03-26T23:38:48.920Z,8.38
2023-03-26T23:41:22.044Z,8.47
2023-03-26T23:43:54.596Z,8.37
2023-03-26T23:46:25.455Z,8.47
2023-03-26T23:48:53.445Z,8.42
2023-03-26T23:51:21.631Z,8.35
2023-03-26T23:53:49.444Z,8.35
2023-03-26T23:56:17.195Z,8.36
2023-03-26T23:58:44.562Z,8.40
